Taurus — WDB5562 — position and weather

sailwx.info

Track history (hours):
 
Tides and Currents Weather Stations Pressure Air Temp Water Temp Dewpoint Dewpoint Depression Visibility Wind Speed Wind Dir Waves Ship Positions

Taurus

Owner: Kirby Offshore Marine, LLC, Staten Island, NY. More information available from US FCC via Universal Licensing System and Coast Guard Vessel Documentation Center.

Last reported at 2015-Feb-28 04:33 UTC. Time now 2015-Feb-28 05:22 UTC.
Position N 40°44' W 073°58'.

Length 24 m.

Type: Tug. MMSI: 366910990.

Date/timePositionNaut miles runAvg speedWind from/ knotsBaromVisibWave heightAir tempDewpointWater temp
2015-Feb-28 04:33N 40°44' W 073°58'6 5.5
2015-Feb-28 03:33N 40°40' W 074°03'6 6.5
2015-Feb-28 02:33N 40°39' W 074°11'5 4.5
2015-Feb-28 01:22N 40°33' W 074°14'2 1.4
2015-Feb-28 00:12N 40°32' W 074°15'0 0.0
2015-Feb-27 23:27N 40°32' W 074°15'0 0.0
2015-Feb-27 22:28N 40°32' W 074°15'4 3.0
2015-Feb-27 21:13N 40°35' W 074°12'4 5.5
2015-Feb-27 20:33N 40°39' W 074°10'0 0.0
2015-Feb-27 19:21N 40°39' W 074°10'0 0.0
2015-Feb-27 18:31N 40°39' W 074°10'2 1.4
2015-Feb-27 17:16N 40°38' W 074°12'3 4.8
2015-Feb-27 16:33N 40°39' W 074°08'1 0.8
2015-Feb-27 15:33N 40°38' W 074°09'1 1.1
2015-Feb-27 14:33N 40°39' W 074°10'2 2.0
2015-Feb-27 13:32N 40°37' W 074°12'6 5.3
2015-Feb-27 12:28N 40°32' W 074°15'6 5.9
2015-Feb-27 11:31N 40°37' W 074°12'5 5.6
2015-Feb-27 10:33N 40°39' W 074°05'1 1.3
2015-Feb-27 09:33N 40°39' W 074°07'0 0.0
2015-Feb-27 08:14N 40°39' W 074°07'0 0.0
2015-Feb-27 07:29N 40°39' W 074°07'0 0.0
2015-Feb-27 05:33N 40°39' W 074°07'0 0.0
2015-Feb-27 04:33N 40°39' W 074°07'1 1.3
2015-Feb-27 03:32N 40°39' W 074°05'1 1.0
2015-Feb-27 02:33N 40°39' W 074°04'0 0.1
2015-Feb-27 01:32N 40°39' W 074°04'1 1.4
2015-Feb-27 00:32N 40°39' W 074°06'1 1.4
2015-Feb-26 23:33N 40°39' W 074°08'2 1.5
2015-Feb-26 22:27N 40°38' W 074°10'0 0.0
2015-Feb-26 21:29N 40°38' W 074°10'0 0.0
2015-Feb-26 20:33N 40°38' W 074°10'0 0.0
2015-Feb-26 19:31N 40°38' W 074°10'0 0.0
2015-Feb-26 18:32N 40°38' W 074°10'0 0.0
2015-Feb-26 17:32N 40°38' W 074°10'0 0.0
2015-Feb-26 16:32N 40°38' W 074°10'0 0.0
2015-Feb-26 15:31N 40°38' W 074°10'0 0.0
2015-Feb-26 14:33N 40°38' W 074°10'0 0.0
2015-Feb-26 13:16N 40°38' W 074°10'0 0.0
2015-Feb-26 12:09N 40°38' W 074°10'3 4.1
2015-Feb-26 11:29N 40°36' W 074°12'2 2.0
2015-Feb-26 10:31N 40°38' W 074°12'7 7.1
2015-Feb-26 09:33N 40°40' W 074°03'9 8.7
2015-Feb-26 08:32N 40°47' W 073°56'8 6.5
2015-Feb-26 07:21N 40°50' W 073°47'8 8.8
2015-Feb-26 06:30N 40°55' W 073°39'8 9.1
2015-Feb-26 05:33N 40°59' W 073°29'9 8.9
2015-Feb-26 04:33N 41°02' W 073°18'9 8.8
2015-Feb-26 03:33N 41°06' W 073°08'8 8.5
2015-Feb-26 02:33N 41°11' W 072°59'7 7.5
2015-Feb-26 01:33N 41°18' W 072°54'0 0.0
2015-Feb-25 21:26N 41°18' W 072°54'0 0.0
2015-Feb-25 20:07N 41°18' W 072°54'0 0.0
2015-Feb-25 19:06N 41°18' W 072°54'0 0.0
2015-Feb-25 17:05N 41°18' W 072°54'0 0.0
2015-Feb-25 15:17N 41°18' W 072°54'5 6.5
2015-Feb-25 14:33N 41°13' W 072°56'2 1.5
2015-Feb-25 13:31N 41°13' W 072°58'0 0.2
2015-Feb-25 12:33N 41°13' W 072°58'0 0.4
2015-Feb-25 11:33N 41°13' W 072°58'0 0.3
2015-Feb-25 10:33N 41°13' W 072°59'0 0.2
2015-Feb-25 09:33N 41°13' W 072°59'0 0.0
2015-Feb-25 08:33N 41°13' W 072°59'0 0.1
2015-Feb-25 07:33N 41°13' W 072°59'0 0.2
2015-Feb-25 06:33N 41°13' W 072°59'0 0.3
2015-Feb-25 05:33N 41°13' W 072°59'0 0.2
2015-Feb-25 04:33N 41°13' W 072°58'0 0.0
2015-Feb-25 03:33N 41°13' W 072°58'0 0.0
2015-Feb-25 02:33N 41°13' W 072°58'2 2.4
2015-Feb-25 01:33N 41°11' W 072°60'8 7.8
2015-Feb-25 00:33N 41°06' W 073°08'8 7.9
2015-Feb-24 23:33N 41°02' W 073°17'8 7.9
2015-Feb-24 22:33N 40°59' W 073°27'7 7.4
2015-Feb-24 21:33N 40°57' W 073°36'8 7.2
2015-Feb-24 20:25N 40°52' W 073°45'11 6.1
2015-Feb-24 18:32N 40°46' W 073°57'6 5.7
2015-Feb-24 17:33N 40°41' W 074°01'5 4.6
2015-Feb-24 16:34N 40°39' W 074°07'3 2.5
2015-Feb-24 15:33N 40°39' W 074°10'0 0.0
2015-Feb-24 14:33N 40°39' W 074°10'0 0.0
2015-Feb-24 13:33N 40°39' W 074°10'2 1.6
2015-Feb-24 12:09N 40°39' W 074°07'0 0.0
2015-Feb-24 11:32N 40°39' W 074°07'0 0.0
2015-Feb-24 10:28N 40°39' W 074°07'0 0.0
2015-Feb-24 08:08N 40°39' W 074°07'0 0.0
2015-Feb-24 07:10N 40°39' W 074°07'0 0.0
2015-Feb-24 06:33N 40°39' W 074°07'1 0.8
2015-Feb-24 05:33N 40°39' W 074°06'2 1.5
2015-Feb-24 04:33N 40°39' W 074°04'3 3.0
2015-Feb-24 03:33N 40°42' W 074°02'4 4.1
2015-Feb-24 02:33N 40°45' W 073°58'4 2.9
2015-Feb-24 01:12N 40°48' W 073°55'4 6.3
2015-Feb-24 00:33N 40°45' W 073°58'5 4.8
2015-Feb-23 23:33N 40°41' W 074°02'6 5.5
2015-Feb-23 22:33N 40°39' W 074°08'1 1.0
2015-Feb-23 21:33N 40°39' W 074°07'9 9.4
2015-Feb-23 20:33N 40°46' W 073°60'0 0.2
2015-Feb-23 19:33N 40°46' W 073°60'0 0.1
2015-Feb-23 18:33N 40°46' W 073°60'5 4.6
2015-Feb-23 17:33N 40°42' W 074°01'6 6.1
2015-Feb-23 16:31N 40°47' W 073°56'2 0.7
2015-Feb-23 14:15N 40°47' W 073°54'1 0.5
2015-Feb-23 12:14N 40°48' W 073°54'1 1.4
2015-Feb-23 11:30N 40°47' W 073°54'0 0.0
2015-Feb-23 10:29N 40°47' W 073°54'0 0.0
2015-Feb-23 09:33N 40°47' W 073°54'0 0.0
2015-Feb-23 08:33N 40°47' W 073°54'0 0.0
2015-Feb-23 07:32N 40°47' W 073°54'1 0.8
2015-Feb-23 06:10N 40°48' W 073°54'1 1.7
2015-Feb-23 05:33N 40°47' W 073°54'0 0.0
2015-Feb-23 04:21N 40°47' W 073°54'0 0.0
2015-Feb-23 03:30N 40°47' W 073°54'0 0.0
2015-Feb-23 02:33N 40°47' W 073°54'0 0.0
2015-Feb-23 01:33N 40°47' W 073°54'1 0.9
2015-Feb-23 00:32N 40°48' W 073°54'4 4.1
2015-Feb-22 23:33N 40°45' W 073°58'5 5.4
2015-Feb-22 22:33N 40°40' W 074°02'4 3.9
2015-Feb-22 21:33N 40°39' W 074°07'0 0.3
2015-Feb-22 20:33N 40°39' W 074°07'2 2.4
2015-Feb-22 19:33N 40°39' W 074°10'4 3.8
2015-Feb-22 18:33N 40°39' W 074°05'9 8.9
2015-Feb-22 17:33N 40°46' W 073°57'3 2.7
2015-Feb-22 16:32N 40°48' W 073°55'1110.8
2015-Feb-22 15:33N 40°40' W 074°03'3 1.5
2015-Feb-22 13:32N 40°39' W 074°07'0 0.0
2015-Feb-22 12:07N 40°39' W 074°07'5 9.0
2015-Feb-22 11:33N 40°41' W 074°01'8 7.8
2015-Feb-22 10:29N 40°47' W 073°54'5 0.5
2015-Feb-22 01:34N 40°44' W 073°58'3 3.3
2015-Feb-22 00:33N 40°41' W 074°01'5 4.9
2015-Feb-21 23:33N 40°39' W 074°07'0 0.1
2015-Feb-21 22:33N 40°39' W 074°07'1 1.1
2015-Feb-21 21:33N 40°39' W 074°05'1 0.6
2015-Feb-21 20:33N 40°39' W 074°06'3 3.2
2015-Feb-21 19:33N 40°38' W 074°10'0 0.0
2015-Feb-21 18:33N 40°38' W 074°10'0 0.0
2015-Feb-21 17:33N 40°38' W 074°10'0 0.4
2015-Feb-21 16:33N 40°39' W 074°10'1 1.1
2015-Feb-21 15:10N 40°38' W 074°12'5 8.0
2015-Feb-21 14:33N 40°39' W 074°06'1 1.2
2015-Feb-21 13:33N 40°39' W 074°04'2 1.6
2015-Feb-21 12:05N 40°39' W 074°07'0 0.0
2015-Feb-21 11:32N 40°39' W 074°07'1 0.5
2015-Feb-21 09:33N 40°39' W 074°06'1 0.6
2015-Feb-21 08:33N 40°39' W 074°05'4 3.7
2015-Feb-21 07:33N 40°38' W 074°10'0 0.0
2015-Feb-21 06:33N 40°38' W 074°10'0 0.0
2015-Feb-21 05:33N 40°38' W 074°10'0 0.0
2015-Feb-21 04:33N 40°38' W 074°10'0 0.0
2015-Feb-21 03:33N 40°38' W 074°10'0 0.0
2015-Feb-21 02:27N 40°38' W 074°10'0 0.0
2015-Feb-21 01:33N 40°38' W 074°10'3 3.3
2015-Feb-21 00:33N 40°39' W 074°06'5 5.2
2015-Feb-20 23:32N 40°35' W 074°01'7 6.6
2015-Feb-20 22:32N 40°35' W 073°53'1 1.3
2015-Feb-20 21:33N 40°35' W 073°51'2 0.4
2015-Feb-20 17:26N 40°36' W 073°49'3 2.4
2015-Feb-20 16:16N 40°38' W 073°46'1 0.5
2015-Feb-20 14:27N 40°38' W 073°45'0 0.0
2015-Feb-20 13:22N 40°38' W 073°45'0 0.0
2015-Feb-20 05:22N 40°38' W 073°45'0 0.0
2015-Feb-20 04:26N 40°38' W 073°45'0 0.0
2015-Feb-20 03:08N 40°38' W 073°45'0 0.0
2015-Feb-20 01:17N 40°38' W 073°45'0 0.0
2015-Feb-20 00:18N 40°38' W 073°45'2 3.0
2015-Feb-19 23:33N 40°36' W 073°47'2 2.0
2015-Feb-19 22:25N 40°38' W 073°45'0 0.0
2015-Feb-19 21:25N 40°38' W 073°45'0 0.0
2015-Feb-19 20:18N 40°38' W 073°45'0 0.0
2015-Feb-19 19:25N 40°38' W 073°45'0 0.0
2015-Feb-19 17:31N 40°38' W 073°45'0 0.0
2015-Feb-19 16:29N 40°38' W 073°45'0 0.2
2015-Feb-19 15:27N 40°38' W 073°45'0 0.2
2015-Feb-19 14:28N 40°38' W 073°45'0 0.0
2015-Feb-19 13:28N 40°38' W 073°45'0 0.0
2015-Feb-19 12:33N 40°38' W 073°45'0 0.0
2015-Feb-19 10:24N 40°38' W 073°45'0 0.0
2015-Feb-19 09:27N 40°38' W 073°45'0 0.0
2015-Feb-19 08:25N 40°38' W 073°45'0 0.0
2015-Feb-19 07:03N 40°38' W 073°45'0 0.0
2015-Feb-19 06:23N 40°38' W 073°45'0 0.0
2015-Feb-19 05:26N 40°38' W 073°45'0 0.0
2015-Feb-19 04:33N 40°38' W 073°45'0 0.0
2015-Feb-19 03:30N 40°38' W 073°45'0 0.0
2015-Feb-19 01:29N 40°38' W 073°45'1 1.0
2015-Feb-19 00:18N 40°37' W 073°46'4 4.8
2015-Feb-18 23:24N 40°35' W 073°51'5 5.8
2015-Feb-18 22:33N 40°34' W 073°57'5 4.8
2015-Feb-18 21:33N 40°37' W 074°03'3 3.2
2015-Feb-18 20:33N 40°39' W 074°05'4 3.5
2015-Feb-18 19:33N 40°38' W 074°10'0 0.0
2015-Feb-18 18:33N 40°38' W 074°10'0 0.0
2015-Feb-18 17:33N 40°38' W 074°10'0 0.0
2015-Feb-18 16:33N 40°38' W 074°10'0 0.0
2015-Feb-18 15:33N 40°38' W 074°10'0 0.0
2015-Feb-18 14:33N 40°38' W 074°10'0 0.0
2015-Feb-18 13:33N 40°38' W 074°10'0 0.0
2015-Feb-18 12:33N 40°38' W 074°10'0 0.0
2015-Feb-18 11:33N 40°38' W 074°10'0 0.0
2015-Feb-18 10:34N 40°38' W 074°10'0 0.0
2015-Feb-18 09:33N 40°38' W 074°10'0 0.0
2015-Feb-18 08:34N 40°38' W 074°10'0 0.0
2015-Feb-18 07:33N 40°38' W 074°10'0 0.0
2015-Feb-18 06:33N 40°38' W 074°10'0 0.0
2015-Feb-18 05:33N 40°38' W 074°10'  
Track history (hours):
 
Tides and Currents Weather Stations Pressure Air Temp Water Temp Dewpoint Dewpoint Depression Visibility Wind Speed Wind Dir Waves Ship Positions

Taurus

Owner: Kirby Offshore Marine, LLC, Staten Island, NY. More information available from US FCC via Universal Licensing System and Coast Guard Vessel Documentation Center.

Last reported at 2015-Feb-28 04:33 UTC. Time now 2015-Feb-28 05:22 UTC.
Position N 40°44' W 073°58'.

Length 24 m.

Type: Tug. MMSI: 366910990.

Date/timePositionNaut miles runAvg speedWind from/ knotsBaromVisibWave heightAir tempDewpointWater temp
2015-Feb-28 04:33N 40°44' W 073°58'6 5.5
2015-Feb-28 03:33N 40°40' W 074°03'6 6.5
2015-Feb-28 02:33N 40°39' W 074°11'5 4.5
2015-Feb-28 01:22N 40°33' W 074°14'2 1.4
2015-Feb-28 00:12N 40°32' W 074°15'0 0.0
2015-Feb-27 23:27N 40°32' W 074°15'0 0.0
2015-Feb-27 22:28N 40°32' W 074°15'4 3.0
2015-Feb-27 21:13N 40°35' W 074°12'4 5.5
2015-Feb-27 20:33N 40°39' W 074°10'0 0.0
2015-Feb-27 19:21N 40°39' W 074°10'0 0.0
2015-Feb-27 18:31N 40°39' W 074°10'2 1.4
2015-Feb-27 17:16N 40°38' W 074°12'3 4.8
2015-Feb-27 16:33N 40°39' W 074°08'1 0.8
2015-Feb-27 15:33N 40°38' W 074°09'1 1.1
2015-Feb-27 14:33N 40°39' W 074°10'2 2.0
2015-Feb-27 13:32N 40°37' W 074°12'6 5.3
2015-Feb-27 12:28N 40°32' W 074°15'6 5.9
2015-Feb-27 11:31N 40°37' W 074°12'5 5.6
2015-Feb-27 10:33N 40°39' W 074°05'1 1.3
2015-Feb-27 09:33N 40°39' W 074°07'0 0.0
2015-Feb-27 08:14N 40°39' W 074°07'0 0.0
2015-Feb-27 07:29N 40°39' W 074°07'0 0.0
2015-Feb-27 05:33N 40°39' W 074°07'0 0.0
2015-Feb-27 04:33N 40°39' W 074°07'1 1.3
2015-Feb-27 03:32N 40°39' W 074°05'1 1.0
2015-Feb-27 02:33N 40°39' W 074°04'0 0.1
2015-Feb-27 01:32N 40°39' W 074°04'1 1.4
2015-Feb-27 00:32N 40°39' W 074°06'1 1.4
2015-Feb-26 23:33N 40°39' W 074°08'2 1.5
2015-Feb-26 22:27N 40°38' W 074°10'0 0.0
2015-Feb-26 21:29N 40°38' W 074°10'0 0.0
2015-Feb-26 20:33N 40°38' W 074°10'0 0.0
2015-Feb-26 19:31N 40°38' W 074°10'0 0.0
2015-Feb-26 18:32N 40°38' W 074°10'0 0.0
2015-Feb-26 17:32N 40°38' W 074°10'0 0.0
2015-Feb-26 16:32N 40°38' W 074°10'0 0.0
2015-Feb-26 15:31N 40°38' W 074°10'0 0.0
2015-Feb-26 14:33N 40°38' W 074°10'0 0.0
2015-Feb-26 13:16N 40°38' W 074°10'0 0.0
2015-Feb-26 12:09N 40°38' W 074°10'3 4.1
2015-Feb-26 11:29N 40°36' W 074°12'2 2.0
2015-Feb-26 10:31N 40°38' W 074°12'7 7.1
2015-Feb-26 09:33N 40°40' W 074°03'9 8.7
2015-Feb-26 08:32N 40°47' W 073°56'8 6.5
2015-Feb-26 07:21N 40°50' W 073°47'8 8.8
2015-Feb-26 06:30N 40°55' W 073°39'8 9.1
2015-Feb-26 05:33N 40°59' W 073°29'9 8.9
2015-Feb-26 04:33N 41°02' W 073°18'9 8.8
2015-Feb-26 03:33N 41°06' W 073°08'8 8.5
2015-Feb-26 02:33N 41°11' W 072°59'7 7.5
2015-Feb-26 01:33N 41°18' W 072°54'0 0.0
2015-Feb-25 21:26N 41°18' W 072°54'0 0.0
2015-Feb-25 20:07N 41°18' W 072°54'0 0.0
2015-Feb-25 19:06N 41°18' W 072°54'0 0.0
2015-Feb-25 17:05N 41°18' W 072°54'0 0.0
2015-Feb-25 15:17N 41°18' W 072°54'5 6.5
2015-Feb-25 14:33N 41°13' W 072°56'2 1.5
2015-Feb-25 13:31N 41°13' W 072°58'0 0.2
2015-Feb-25 12:33N 41°13' W 072°58'0 0.4
2015-Feb-25 11:33N 41°13' W 072°58'0 0.3
2015-Feb-25 10:33N 41°13' W 072°59'0 0.2
2015-Feb-25 09:33N 41°13' W 072°59'0 0.0
2015-Feb-25 08:33N 41°13' W 072°59'0 0.1
2015-Feb-25 07:33N 41°13' W 072°59'0 0.2
2015-Feb-25 06:33N 41°13' W 072°59'0 0.3
2015-Feb-25 05:33N 41°13' W 072°59'0 0.2
2015-Feb-25 04:33N 41°13' W 072°58'0 0.0
2015-Feb-25 03:33N 41°13' W 072°58'0 0.0
2015-Feb-25 02:33N 41°13' W 072°58'2 2.4
2015-Feb-25 01:33N 41°11' W 072°60'8 7.8
2015-Feb-25 00:33N 41°06' W 073°08'8 7.9
2015-Feb-24 23:33N 41°02' W 073°17'8 7.9
2015-Feb-24 22:33N 40°59' W 073°27'7 7.4
2015-Feb-24 21:33N 40°57' W 073°36'8 7.2
2015-Feb-24 20:25N 40°52' W 073°45'11 6.1
2015-Feb-24 18:32N 40°46' W 073°57'6 5.7
2015-Feb-24 17:33N 40°41' W 074°01'5 4.6
2015-Feb-24 16:34N 40°39' W 074°07'3 2.5
2015-Feb-24 15:33N 40°39' W 074°10'0 0.0
2015-Feb-24 14:33N 40°39' W 074°10'0 0.0
2015-Feb-24 13:33N 40°39' W 074°10'2 1.6
2015-Feb-24 12:09N 40°39' W 074°07'0 0.0
2015-Feb-24 11:32N 40°39' W 074°07'0 0.0
2015-Feb-24 10:28N 40°39' W 074°07'0 0.0
2015-Feb-24 08:08N 40°39' W 074°07'0 0.0
2015-Feb-24 07:10N 40°39' W 074°07'0 0.0
2015-Feb-24 06:33N 40°39' W 074°07'1 0.8
2015-Feb-24 05:33N 40°39' W 074°06'2 1.5
2015-Feb-24 04:33N 40°39' W 074°04'3 3.0
2015-Feb-24 03:33N 40°42' W 074°02'4 4.1
2015-Feb-24 02:33N 40°45' W 073°58'4 2.9
2015-Feb-24 01:12N 40°48' W 073°55'4 6.3
2015-Feb-24 00:33N 40°45' W 073°58'5 4.8
2015-Feb-23 23:33N 40°41' W 074°02'6 5.5
2015-Feb-23 22:33N 40°39' W 074°08'1 1.0
2015-Feb-23 21:33N 40°39' W 074°07'9 9.4
2015-Feb-23 20:33N 40°46' W 073°60'0 0.2
2015-Feb-23 19:33N 40°46' W 073°60'0 0.1
2015-Feb-23 18:33N 40°46' W 073°60'5 4.6
2015-Feb-23 17:33N 40°42' W 074°01'6 6.1
2015-Feb-23 16:31N 40°47' W 073°56'2 0.7
2015-Feb-23 14:15N 40°47' W 073°54'1 0.5
2015-Feb-23 12:14N 40°48' W 073°54'1 1.4
2015-Feb-23 11:30N 40°47' W 073°54'0 0.0
2015-Feb-23 10:29N 40°47' W 073°54'0 0.0
2015-Feb-23 09:33N 40°47' W 073°54'0 0.0
2015-Feb-23 08:33N 40°47' W 073°54'0 0.0
2015-Feb-23 07:32N 40°47' W 073°54'1 0.8
2015-Feb-23 06:10N 40°48' W 073°54'1 1.7
2015-Feb-23 05:33N 40°47' W 073°54'0 0.0
2015-Feb-23 04:21N 40°47' W 073°54'0 0.0
2015-Feb-23 03:30N 40°47' W 073°54'0 0.0
2015-Feb-23 02:33N 40°47' W 073°54'0 0.0
2015-Feb-23 01:33N 40°47' W 073°54'1 0.9
2015-Feb-23 00:32N 40°48' W 073°54'4 4.1
2015-Feb-22 23:33N 40°45' W 073°58'5 5.4
2015-Feb-22 22:33N 40°40' W 074°02'4 3.9
2015-Feb-22 21:33N 40°39' W 074°07'0 0.3
2015-Feb-22 20:33N 40°39' W 074°07'2 2.4
2015-Feb-22 19:33N 40°39' W 074°10'4 3.8
2015-Feb-22 18:33N 40°39' W 074°05'9 8.9
2015-Feb-22 17:33N 40°46' W 073°57'3 2.7
2015-Feb-22 16:32N 40°48' W 073°55'1110.8
2015-Feb-22 15:33N 40°40' W 074°03'3 1.5
2015-Feb-22 13:32N 40°39' W 074°07'0 0.0
2015-Feb-22 12:07N 40°39' W 074°07'5 9.0
2015-Feb-22 11:33N 40°41' W 074°01'8 7.8
2015-Feb-22 10:29N 40°47' W 073°54'5 0.5
2015-Feb-22 01:34N 40°44' W 073°58'3 3.3
2015-Feb-22 00:33N 40°41' W 074°01'5 4.9
2015-Feb-21 23:33N 40°39' W 074°07'0 0.1
2015-Feb-21 22:33N 40°39' W 074°07'1 1.1
2015-Feb-21 21:33N 40°39' W 074°05'1 0.6
2015-Feb-21 20:33N 40°39' W 074°06'3 3.2
2015-Feb-21 19:33N 40°38' W 074°10'0 0.0
2015-Feb-21 18:33N 40°38' W 074°10'0 0.0
2015-Feb-21 17:33N 40°38' W 074°10'0 0.4
2015-Feb-21 16:33N 40°39' W 074°10'1 1.1
2015-Feb-21 15:10N 40°38' W 074°12'5 8.0
2015-Feb-21 14:33N 40°39' W 074°06'1 1.2
2015-Feb-21 13:33N 40°39' W 074°04'2 1.6
2015-Feb-21 12:05N 40°39' W 074°07'0 0.0
2015-Feb-21 11:32N 40°39' W 074°07'1 0.5
2015-Feb-21 09:33N 40°39' W 074°06'1 0.6
2015-Feb-21 08:33N 40°39' W 074°05'4 3.7
2015-Feb-21 07:33N 40°38' W 074°10'0 0.0
2015-Feb-21 06:33N 40°38' W 074°10'0 0.0
2015-Feb-21 05:33N 40°38' W 074°10'0 0.0
2015-Feb-21 04:33N 40°38' W 074°10'0 0.0
2015-Feb-21 03:33N 40°38' W 074°10'0 0.0
2015-Feb-21 02:27N 40°38' W 074°10'0 0.0
2015-Feb-21 01:33N 40°38' W 074°10'3 3.3
2015-Feb-21 00:33N 40°39' W 074°06'5 5.2
2015-Feb-20 23:32N 40°35' W 074°01'7 6.6
2015-Feb-20 22:32N 40°35' W 073°53'1 1.3
2015-Feb-20 21:33N 40°35' W 073°51'2 0.4
2015-Feb-20 17:26N 40°36' W 073°49'3 2.4
2015-Feb-20 16:16N 40°38' W 073°46'1 0.5
2015-Feb-20 14:27N 40°38' W 073°45'0 0.0
2015-Feb-20 13:22N 40°38' W 073°45'0 0.0
2015-Feb-20 05:22N 40°38' W 073°45'0 0.0
2015-Feb-20 04:26N 40°38' W 073°45'0 0.0
2015-Feb-20 03:08N 40°38' W 073°45'0 0.0
2015-Feb-20 01:17N 40°38' W 073°45'0 0.0
2015-Feb-20 00:18N 40°38' W 073°45'2 3.0
2015-Feb-19 23:33N 40°36' W 073°47'2 2.0
2015-Feb-19 22:25N 40°38' W 073°45'0 0.0
2015-Feb-19 21:25N 40°38' W 073°45'0 0.0
2015-Feb-19 20:18N 40°38' W 073°45'0 0.0
2015-Feb-19 19:25N 40°38' W 073°45'0 0.0
2015-Feb-19 17:31N 40°38' W 073°45'0 0.0
2015-Feb-19 16:29N 40°38' W 073°45'0 0.2
2015-Feb-19 15:27N 40°38' W 073°45'0 0.2
2015-Feb-19 14:28N 40°38' W 073°45'0 0.0
2015-Feb-19 13:28N 40°38' W 073°45'0 0.0
2015-Feb-19 12:33N 40°38' W 073°45'0 0.0
2015-Feb-19 10:24N 40°38' W 073°45'0 0.0
2015-Feb-19 09:27N 40°38' W 073°45'0 0.0
2015-Feb-19 08:25N 40°38' W 073°45'0 0.0
2015-Feb-19 07:03N 40°38' W 073°45'0 0.0
2015-Feb-19 06:23N 40°38' W 073°45'0 0.0
2015-Feb-19 05:26N 40°38' W 073°45'0 0.0
2015-Feb-19 04:33N 40°38' W 073°45'0 0.0
2015-Feb-19 03:30N 40°38' W 073°45'0 0.0
2015-Feb-19 01:29N 40°38' W 073°45'1 1.0
2015-Feb-19 00:18N 40°37' W 073°46'4 4.8
2015-Feb-18 23:24N 40°35' W 073°51'5 5.8
2015-Feb-18 22:33N 40°34' W 073°57'5 4.8
2015-Feb-18 21:33N 40°37' W 074°03'3 3.2
2015-Feb-18 20:33N 40°39' W 074°05'4 3.5
2015-Feb-18 19:33N 40°38' W 074°10'0 0.0
2015-Feb-18 18:33N 40°38' W 074°10'0 0.0
2015-Feb-18 17:33N 40°38' W 074°10'0 0.0
2015-Feb-18 16:33N 40°38' W 074°10'0 0.0
2015-Feb-18 15:33N 40°38' W 074°10'0 0.0
2015-Feb-18 14:33N 40°38' W 074°10'0 0.0
2015-Feb-18 13:33N 40°38' W 074°10'0 0.0
2015-Feb-18 12:33N 40°38' W 074°10'0 0.0
2015-Feb-18 11:33N 40°38' W 074°10'0 0.0
2015-Feb-18 10:34N 40°38' W 074°10'0 0.0
2015-Feb-18 09:33N 40°38' W 074°10'0 0.0
2015-Feb-18 08:34N 40°38' W 074°10'0 0.0
2015-Feb-18 07:33N 40°38' W 074°10'0 0.0
2015-Feb-18 06:33N 40°38' W 074°10'0 0.0
2015-Feb-18 05:33N 40°38' W 074°10'  

Dump ship's entire track history